createdAt,value
2022-09-06T00:01:20.010Z,92.30
2022-09-06T00:03:46.695Z,91.50
2022-09-06T00:06:15.432Z,91.80
2022-09-06T00:08:43.573Z,91.80
2022-09-06T00:11:10.553Z,91.10
2022-09-06T00:13:37.639Z,92.00
2022-09-06T00:16:08.451Z,91.60
2022-09-06T00:18:35.205Z,91.40
2022-09-06T00:21:01.824Z,92.40
2022-09-06T00:23:28.372Z,91.80
2022-09-06T00:26:01.302Z,92.00
2022-09-06T00:28:28.064Z,92.30
2022-09-06T00:30:54.728Z,91.80
2022-09-06T00:33:22.388Z,92.20
2022-09-06T00:35:49.267Z,91.20
2022-09-06T00:38:15.919Z,91.10
2022-09-06T00:40:42.512Z,91.00
2022-09-06T00:43:09.082Z,91.30
2022-09-06T00:45:35.682Z,92.00
2022-09-06T00:48:04.834Z,91.50
2022-09-06T00:50:31.434Z,91.70
2022-09-06T00:52:58.073Z,92.70
2022-09-06T00:55:26.181Z,92.00
2022-09-06T00:57:53.232Z,92.00
2022-09-06T01:00:20.775Z,92.50
2022-09-06T01:02:48.378Z,92.90
2022-09-06T01:05:15.551Z,91.70
2022-09-06T01:07:49.048Z,90.00
2022-09-06T01:10:32.590Z,90.20
2022-09-06T01:13:09.846Z,88.00
2022-09-06T01:15:45.986Z,86.60
2022-09-06T01:18:30.699Z,87.90
2022-09-06T01:21:20.962Z,88.50
2022-09-06T01:24:06.007Z,89.40
2022-09-06T01:26:32.559Z,89.50
2022-09-06T01:28:59.231Z,89.70
2022-09-06T01:31:39.036Z,90.10
2022-09-06T01:34:05.614Z,90.70
2022-09-06T01:37:08.944Z,90.50
2022-09-06T01:39:36.410Z,91.20
2022-09-06T01:42:12.153Z,92.30
2022-09-06T01:44:41.021Z,92.00
2022-09-06T01:47:17.491Z,93.00
2022-09-06T01:49:55.771Z,94.30
2022-09-06T01:52:47.095Z,93.30
2022-09-06T01:55:23.016Z,93.70
2022-09-06T01:58:08.415Z,93.30
2022-09-06T02:00:39.526Z,93.20
2022-09-06T02:03:09.281Z,93.40
2022-09-06T02:05:59.267Z,92.70
2022-09-06T02:08:29.470Z,92.60
2022-09-06T02:11:01.376Z,92.20
2022-09-06T02:13:31.934Z,92.80
2022-09-06T02:16:01.544Z,92.50
2022-09-06T02:18:31.005Z,92.30
2022-09-06T02:20:58.580Z,93.30
2022-09-06T02:23:28.307Z,93.10
2022-09-06T02:25:57.455Z,92.10
2022-09-06T02:28:24.759Z,92.20
2022-09-06T02:30:55.951Z,92.30
2022-09-06T02:33:24.676Z,91.60
2022-09-06T02:35:52.892Z,92.10
2022-09-06T02:38:21.820Z,93.50
2022-09-06T02:40:49.205Z,93.90
2022-09-06T02:43:15.766Z,93.90
2022-09-06T02:45:42.432Z,94.40
2022-09-06T02:48:09.054Z,95.30
2022-09-06T02:50:37.002Z,95.60
2022-09-06T02:53:11.174Z,96.70
2022-09-06T02:55:38.409Z,97.60
2022-09-06T02:58:06.518Z,98.30
2022-09-06T03:00:33.109Z,98.80
2022-09-06T03:02:59.956Z,99.50
2022-09-06T03:05:27.329Z,99.90
2022-09-06T03:07:54.426Z,99.80
2022-09-06T03:10:21.307Z,99.90
2022-09-06T03:12:47.935Z,99.90
2022-09-06T03:15:15.458Z,99.90
2022-09-06T03:17:42.536Z,99.90
2022-09-06T03:20:09.994Z,99.90
2022-09-06T03:22:37.013Z,99.90
2022-09-06T03:25:03.721Z,99.90
2022-09-06T03:27:30.345Z,99.90
2022-09-06T03:29:56.967Z,99.90
2022-09-06T03:32:23.635Z,99.90
2022-09-06T03:34:50.244Z,99.90
2022-09-06T03:37:16.944Z,99.90
2022-09-06T03:39:43.852Z,99.90
2022-09-06T03:42:10.441Z,99.90
2022-09-06T03:44:37.044Z,99.90
2022-09-06T03:47:03.975Z,99.90
2022-09-06T03:49:30.619Z,99.90
2022-09-06T03:51:57.191Z,99.90
2022-09-06T03:54:24.581Z,99.90
2022-09-06T03:56:51.375Z,99.90
2022-09-06T03:59:17.945Z,99.90
2022-09-06T04:01:44.610Z,99.90
2022-09-06T04:04:11.237Z,99.90
2022-09-06T04:06:37.806Z,99.90
2022-09-06T04:09:04.389Z,99.90
2022-09-06T04:11:30.952Z,99.90
2022-09-06T04:13:57.558Z,99.90
2022-09-06T04:16:24.178Z,99.90
2022-09-06T04:18:50.836Z,99.90
2022-09-06T04:21:17.453Z,99.90
2022-09-06T04:23:44.092Z,99.90
2022-09-06T04:26:10.847Z,99.90
2022-09-06T04:28:37.472Z,99.90
2022-09-06T04:31:05.224Z,99.90
2022-09-06T04:33:33.370Z,99.90
2022-09-06T04:36:00.732Z,99.90
2022-09-06T04:38:28.434Z,99.90
2022-09-06T04:40:58.147Z,99.90
2022-09-06T04:43:24.822Z,99.90
2022-09-06T04:45:51.513Z,99.90
2022-09-06T04:48:18.199Z,99.90
2022-09-06T04:50:44.840Z,99.90
2022-09-06T04:53:11.639Z,99.90
2022-09-06T04:55:38.353Z,99.90
2022-09-06T04:58:05.747Z,99.90
2022-09-06T05:00:33.223Z,99.90
2022-09-06T05:02:59.929Z,99.90
2022-09-06T05:05:26.588Z,99.90
2022-09-06T05:07:53.531Z,99.90
2022-09-06T05:10:20.443Z,99.90
2022-09-06T05:12:50.891Z,99.90
2022-09-06T05:15:18.130Z,99.90
2022-09-06T05:17:44.814Z,99.90
2022-09-06T05:20:11.771Z,99.90
2022-09-06T05:22:38.879Z,99.90
2022-09-06T05:25:05.963Z,99.90
2022-09-06T05:27:32.529Z,99.90
2022-09-06T05:29:59.102Z,99.90
2022-09-06T05:32:25.671Z,99.90
2022-09-06T05:34:52.326Z,99.90
2022-09-06T05:37:18.939Z,99.90
2022-09-06T05:39:45.618Z,99.90
2022-09-06T05:42:14.930Z,99.90
2022-09-06T05:44:45.158Z,99.90
2022-09-06T05:47:11.734Z,99.90
2022-09-06T05:49:38.298Z,99.90
2022-09-06T05:52:04.938Z,99.90
2022-09-06T05:54:31.633Z,99.90
2022-09-06T05:56:58.212Z,99.90
2022-09-06T05:59:24.952Z,99.90
2022-09-06T06:01:52.531Z,99.90
2022-09-06T06:04:19.204Z,99.90
2022-09-06T06:06:46.687Z,99.90
2022-09-06T06:09:13.552Z,99.90
2022-09-06T06:11:40.845Z,99.90
2022-09-06T06:14:07.683Z,99.80
2022-09-06T06:16:34.393Z,99.40
2022-09-06T06:19:01.106Z,99.10
2022-09-06T06:21:31.868Z,98.70
2022-09-06T06:23:59.336Z,98.40
2022-09-06T06:26:26.642Z,97.40
2022-09-06T06:28:53.599Z,94.90
2022-09-06T06:31:22.298Z,92.10
2022-09-06T06:33:49.223Z,90.50
2022-09-06T06:36:15.750Z,85.80
2022-09-06T06:38:43.069Z,82.20
2022-09-06T06:41:10.728Z,80.60
2022-09-06T06:43:38.085Z,81.50
2022-09-06T06:46:08.923Z,83.60
2022-09-06T06:48:37.045Z,85.40
2022-09-06T06:51:03.951Z,87.00
2022-09-06T06:53:30.631Z,86.70
2022-09-06T06:55:57.218Z,90.10
2022-09-06T06:58:23.953Z,90.00
2022-09-06T07:00:50.635Z,90.10
2022-09-06T07:03:18.245Z,90.80
2022-09-06T07:08:33.705Z,86.20
2022-09-06T07:11:00.366Z,79.90
2022-09-06T07:13:27.073Z,74.00
2022-09-06T07:16:05.744Z,68.30
2022-09-06T07:18:32.388Z,65.40
2022-09-06T07:26:32.673Z,54.60
2022-09-06T07:29:00.729Z,55.30
2022-09-06T07:34:14.545Z,53.20
2022-09-06T07:36:41.172Z,50.70
2022-09-06T07:39:07.746Z,49.70
2022-09-06T07:41:34.314Z,47.40
2022-09-06T07:44:00.915Z,45.80
2022-09-06T07:46:27.548Z,44.80
2022-09-06T07:48:54.197Z,47.20
2022-09-06T07:51:21.412Z,47.10
2022-09-06T07:53:57.907Z,46.20
2022-09-06T07:56:33.959Z,44.70
2022-09-06T07:59:00.514Z,44.50
2022-09-06T08:01:31.610Z,45.30
2022-09-06T08:03:58.897Z,43.70
2022-09-06T08:06:26.190Z,44.20
2022-09-06T08:11:23.883Z,42.20
2022-09-06T08:13:51.791Z,41.10
2022-09-06T08:16:18.532Z,41.60
2022-09-06T08:18:45.147Z,43.30
2022-09-06T08:21:13.368Z,43.00
2022-09-06T08:23:42.773Z,43.80
2022-09-06T08:26:09.326Z,41.30
2022-09-06T08:28:35.951Z,41.20
2022-09-06T08:31:09.675Z,40.10
2022-09-06T08:33:36.732Z,39.70
2022-09-06T08:36:04.172Z,41.70
2022-09-06T08:38:31.006Z,43.10
2022-09-06T08:41:16.155Z,42.90
2022-09-06T08:46:47.368Z,42.50
2022-09-06T08:49:14.359Z,39.70
2022-09-06T08:51:49.257Z,39.10
2022-09-06T08:54:21.445Z,41.10
2022-09-06T08:57:01.271Z,40.50
2022-09-06T08:59:28.311Z,41.20
2022-09-06T09:02:10.277Z,42.00
2022-09-06T09:04:39.099Z,41.00
2022-09-06T09:07:20.952Z,42.00
2022-09-06T09:09:47.716Z,41.00
2022-09-06T09:12:16.124Z,39.70
2022-09-06T09:14:45.253Z,42.20
2022-09-06T09:17:22.385Z,41.20
2022-09-06T09:19:49.269Z,41.30
2022-09-06T09:22:18.222Z,42.90
2022-09-06T09:24:47.371Z,38.50
2022-09-06T09:27:18.111Z,40.40
2022-09-06T09:32:41.918Z,42.70
2022-09-06T09:35:23.522Z,41.50
2022-09-06T09:38:07.790Z,41.10
2022-09-06T09:40:42.642Z,40.60
2022-09-06T09:43:11.151Z,37.10
2022-09-06T09:45:37.949Z,38.40
2022-09-06T09:48:34.128Z,37.60
2022-09-06T09:51:23.871Z,39.60
2022-09-06T09:53:54.830Z,36.30
2022-09-06T09:56:29.539Z,35.50
2022-09-06T09:58:56.994Z,38.20
2022-09-06T10:01:28.907Z,38.20
2022-09-06T10:07:10.176Z,39.30
2022-09-06T10:09:38.781Z,38.70
2022-09-06T10:12:05.421Z,35.00
2022-09-06T10:14:39.521Z,34.50
2022-09-06T10:17:06.202Z,37.00
2022-09-06T10:19:36.001Z,38.90
2022-09-06T10:22:08.915Z,37.00
2022-09-06T10:24:47.097Z,36.70
2022-09-06T10:27:14.497Z,38.70
2022-09-06T10:29:48.102Z,42.70
2022-09-06T10:32:31.221Z,41.40
2022-09-06T10:34:57.837Z,41.30
2022-09-06T10:37:41.409Z,41.20
2022-09-06T10:40:08.724Z,43.30
2022-09-06T10:42:56.216Z,39.80
2022-09-06T10:45:35.340Z,40.30
2022-09-06T10:48:11.312Z,41.80
2022-09-06T10:50:44.291Z,38.20
2022-09-06T10:53:13.669Z,40.70
2022-09-06T10:55:41.373Z,39.60
2022-09-06T10:58:19.051Z,37.20
2022-09-06T11:00:47.521Z,35.90
2022-09-06T11:06:10.705Z,38.90
2022-09-06T11:11:19.549Z,39.00
2022-09-06T11:13:47.209Z,39.70
2022-09-06T11:16:26.045Z,40.90
2022-09-06T11:19:02.877Z,37.50
2022-09-06T11:21:48.396Z,37.00
2022-09-06T11:24:35.373Z,38.80
2022-09-06T11:27:10.096Z,39.30
2022-09-06T11:29:39.806Z,38.10
2022-09-06T11:32:26.426Z,37.50
2022-09-06T11:34:54.636Z,41.20
2022-09-06T11:37:28.233Z,41.50
2022-09-06T11:40:27.206Z,40.40
2022-09-06T11:42:56.023Z,41.50
2022-09-06T11:46:01.528Z,41.90
2022-09-06T11:48:34.987Z,44.10
2022-09-06T11:51:01.726Z,44.10
2022-09-06T11:53:31.046Z,43.60
2022-09-06T11:56:00.613Z,42.40
2022-09-06T11:58:48.577Z,40.30
2022-09-06T12:01:16.632Z,38.20
2022-09-06T12:06:32.402Z,39.10
2022-09-06T12:08:59.453Z,38.90
2022-09-06T12:11:30.339Z,37.40
2022-09-06T12:13:57.962Z,38.20
2022-09-06T12:16:24.677Z,38.00
2022-09-06T12:18:51.463Z,37.50
2022-09-06T12:21:37.128Z,38.90
2022-09-06T12:24:04.305Z,38.20
2022-09-06T12:26:55.688Z,36.90
2022-09-06T12:29:26.451Z,36.60
2022-09-06T12:32:01.614Z,37.20
2022-09-06T12:34:32.056Z,38.00
2022-09-06T12:36:58.659Z,37.50
2022-09-06T12:39:25.625Z,37.40
2022-09-06T12:41:55.337Z,37.00
2022-09-06T12:44:28.638Z,36.70
2022-09-06T12:46:55.907Z,37.10
2022-09-06T12:49:23.493Z,38.80
2022-09-06T12:51:50.420Z,37.90
2022-09-06T12:54:17.059Z,37.00
2022-09-06T12:56:43.757Z,37.80
2022-09-06T12:59:12.404Z,37.70
2022-09-06T13:01:39.172Z,39.10
2022-09-06T13:04:16.222Z,38.70
2022-09-06T13:06:45.741Z,38.90
2022-09-06T13:09:14.362Z,38.80
2022-09-06T13:11:44.756Z,38.60
2022-09-06T13:14:14.483Z,39.20
2022-09-06T13:16:48.286Z,40.40
2022-09-06T13:19:16.545Z,40.50
2022-09-06T13:21:44.821Z,41.90
2022-09-06T13:24:18.750Z,42.00
2022-09-06T13:26:45.620Z,41.20
2022-09-06T13:29:21.772Z,41.20
2022-09-06T13:31:52.733Z,42.20
2022-09-06T13:34:32.819Z,41.70
2022-09-06T13:37:01.101Z,41.50
2022-09-06T13:39:32.106Z,42.10
2022-09-06T13:42:03.217Z,42.10
2022-09-06T13:44:31.391Z,40.80
2022-09-06T13:46:58.493Z,40.50
2022-09-06T13:49:25.470Z,41.20
2022-09-06T13:51:52.972Z,41.50
2022-09-06T13:54:20.195Z,43.40
2022-09-06T13:56:48.404Z,42.20
2022-09-06T13:59:15.127Z,42.80
2022-09-06T14:01:43.087Z,43.30
2022-09-06T14:04:11.198Z,43.50
2022-09-06T14:06:37.851Z,44.20
2022-09-06T14:09:07.765Z,44.20
2022-09-06T14:11:35.264Z,45.10
2022-09-06T14:14:01.859Z,46.20
2022-09-06T14:16:28.812Z,47.10
2022-09-06T14:18:55.447Z,47.60
2022-09-06T14:21:22.335Z,48.00
2022-09-06T14:23:50.953Z,48.50
2022-09-06T14:26:18.865Z,48.90
2022-09-06T14:28:45.601Z,49.10
2022-09-06T14:31:13.697Z,49.30
2022-09-06T14:33:40.460Z,48.80
2022-09-06T14:36:11.893Z,49.80
2022-09-06T14:38:39.043Z,49.70
2022-09-06T14:41:06.911Z,50.20
2022-09-06T14:43:34.202Z,51.10
2022-09-06T14:46:08.030Z,51.60
2022-09-06T14:48:37.181Z,51.70
2022-09-06T14:51:26.005Z,53.10
2022-09-06T14:53:57.271Z,52.10
2022-09-06T14:56:23.989Z,52.00
2022-09-06T14:58:50.907Z,52.00
2022-09-06T15:01:22.480Z,51.60
2022-09-06T15:03:51.851Z,52.00
2022-09-06T15:06:20.278Z,51.80
2022-09-06T15:08:48.395Z,51.70
2022-09-06T15:11:15.820Z,51.40
2022-09-06T15:13:42.858Z,52.80
2022-09-06T15:16:10.258Z,52.00
2022-09-06T15:18:37.178Z,53.00
2022-09-06T15:21:14.619Z,53.00
2022-09-06T15:23:42.992Z,52.70
2022-09-06T15:26:11.389Z,53.40
2022-09-06T15:28:39.309Z,53.10
2022-09-06T15:31:06.697Z,52.30
2022-09-06T15:33:34.241Z,54.00
2022-09-06T15:36:06.020Z,54.10
2022-09-06T15:38:33.358Z,53.70
2022-09-06T15:41:07.915Z,54.10
2022-09-06T15:43:35.850Z,54.50
2022-09-06T15:46:02.808Z,54.30
2022-09-06T15:48:29.882Z,54.80
2022-09-06T15:50:56.814Z,55.70
2022-09-06T15:53:23.649Z,55.60
2022-09-06T15:55:57.416Z,55.50
2022-09-06T15:58:24.496Z,55.40
2022-09-06T16:01:10.276Z,55.70
2022-09-06T16:03:38.130Z,55.50
2022-09-06T16:08:55.948Z,55.50
2022-09-06T16:11:22.702Z,55.50
2022-09-06T16:13:49.477Z,55.50
2022-09-06T16:16:16.673Z,56.30
2022-09-06T16:18:44.432Z,56.70
2022-09-06T16:21:16.612Z,56.30
2022-09-06T16:23:47.430Z,56.90
2022-09-06T16:26:15.965Z,57.40
2022-09-06T16:28:47.330Z,57.90
2022-09-06T16:31:14.195Z,58.10
2022-09-06T16:33:40.909Z,56.80
2022-09-06T16:36:09.918Z,56.80
2022-09-06T16:38:37.172Z,57.10
2022-09-06T16:41:21.604Z,57.50
2022-09-06T16:43:52.295Z,58.00
2022-09-06T16:46:20.078Z,58.00
2022-09-06T16:48:57.057Z,58.60
2022-09-06T16:51:24.869Z,58.50
2022-09-06T16:53:52.174Z,60.10
2022-09-06T16:56:20.800Z,59.30
2022-09-06T16:58:51.778Z,61.40
2022-09-06T17:01:18.935Z,60.10
2022-09-06T17:03:45.641Z,60.30
2022-09-06T17:06:13.094Z,62.10
2022-09-06T17:08:40.081Z,62.00
2022-09-06T17:11:09.952Z,64.80
2022-09-06T17:13:36.590Z,62.10
2022-09-06T17:16:22.536Z,66.30
2022-09-06T17:18:49.564Z,62.50
2022-09-06T17:21:16.313Z,62.40
2022-09-06T17:23:43.057Z,65.20
2022-09-06T17:26:09.795Z,66.50
2022-09-06T17:28:37.144Z,67.60
2022-09-06T17:31:05.952Z,69.80
2022-09-06T17:33:33.167Z,68.30
2022-09-06T17:36:07.205Z,68.30
2022-09-06T17:38:34.485Z,66.60
2022-09-06T17:41:02.182Z,70.30
2022-09-06T17:43:29.057Z,69.00
2022-09-06T17:45:55.779Z,68.60
2022-09-06T17:48:22.552Z,70.70
2022-09-06T17:50:49.974Z,69.00
2022-09-06T17:53:16.606Z,70.00
2022-09-06T17:55:44.810Z,72.90
2022-09-06T17:58:11.769Z,71.20
2022-09-06T18:00:40.141Z,73.40
2022-09-06T18:03:07.354Z,73.40
2022-09-06T18:05:40.311Z,75.00
2022-09-06T18:08:07.804Z,75.60
2022-09-06T18:10:36.417Z,75.20
2022-09-06T18:13:04.084Z,76.40
2022-09-06T18:15:30.762Z,79.00
2022-09-06T18:17:58.007Z,76.90
2022-09-06T18:20:27.899Z,80.00
2022-09-06T18:22:54.942Z,78.90
2022-09-06T18:25:21.553Z,80.60
2022-09-06T18:27:48.740Z,78.20
2022-09-06T18:30:16.035Z,78.60
2022-09-06T18:32:43.614Z,80.10
2022-09-06T18:35:10.210Z,79.60
2022-09-06T18:37:36.955Z,79.50
2022-09-06T18:40:04.806Z,81.00
2022-09-06T18:42:31.993Z,81.00
2022-09-06T18:44:58.812Z,82.30
2022-09-06T18:47:25.450Z,84.40
2022-09-06T18:49:53.282Z,84.70
2022-09-06T18:52:20.755Z,84.40
2022-09-06T18:54:48.981Z,85.30
2022-09-06T18:57:16.440Z,84.80
2022-09-06T18:59:43.433Z,86.40
2022-09-06T19:02:10.241Z,86.60
2022-09-06T19:04:36.950Z,88.80
2022-09-06T19:07:03.893Z,89.60
2022-09-06T19:09:30.601Z,88.40
2022-09-06T19:11:57.218Z,91.30
2022-09-06T19:14:23.976Z,91.40
2022-09-06T19:16:53.878Z,92.00
2022-09-06T19:19:21.761Z,91.20
2022-09-06T19:21:48.605Z,91.50
2022-09-06T19:24:16.010Z,92.00
2022-09-06T19:26:43.941Z,92.20
2022-09-06T19:29:17.744Z,91.80
2022-09-06T19:31:45.358Z,93.10
2022-09-06T19:34:13.548Z,92.90
2022-09-06T19:36:40.225Z,92.50
2022-09-06T19:39:07.964Z,92.20
2022-09-06T19:41:36.900Z,92.40
2022-09-06T19:44:05.817Z,92.10
2022-09-06T19:46:32.997Z,92.90
2022-09-06T19:49:00.435Z,92.40
2022-09-06T19:51:27.171Z,92.40
2022-09-06T19:53:54.770Z,92.70
2022-09-06T19:56:22.568Z,92.70
2022-09-06T19:58:53.706Z,92.20
2022-09-06T20:01:20.565Z,92.10
2022-09-06T20:03:47.687Z,92.40
2022-09-06T20:06:14.302Z,92.00
2022-09-06T20:08:41.349Z,91.70
2022-09-06T20:11:09.128Z,91.90
2022-09-06T20:13:37.088Z,91.30
2022-09-06T20:16:04.653Z,91.60
2022-09-06T20:18:37.905Z,91.40
2022-09-06T20:21:04.822Z,91.80
2022-09-06T20:23:31.989Z,92.20
2022-09-06T20:26:02.858Z,92.30
2022-09-06T20:28:29.922Z,92.20
2022-09-06T20:31:23.159Z,91.80
2022-09-06T20:33:50.099Z,91.80
2022-09-06T20:36:17.329Z,92.10
2022-09-06T20:38:45.011Z,91.30
2022-09-06T20:41:13.021Z,91.30
2022-09-06T20:43:40.487Z,91.80
2022-09-06T20:46:14.823Z,92.30
2022-09-06T20:48:44.720Z,91.60
2022-09-06T20:51:18.924Z,91.50
2022-09-06T20:53:47.073Z,91.30
2022-09-06T20:56:14.863Z,91.70
2022-09-06T20:58:41.705Z,91.50
2022-09-06T21:01:11.086Z,91.40
2022-09-06T21:03:39.221Z,91.60
2022-09-06T21:06:09.703Z,91.80
2022-09-06T21:08:40.708Z,91.80
2022-09-06T21:11:09.911Z,92.20
2022-09-06T21:13:36.757Z,92.60
2022-09-06T21:16:04.023Z,91.80
2022-09-06T21:18:31.323Z,92.50
2022-09-06T21:21:02.994Z,92.40
2022-09-06T21:23:30.764Z,91.90
2022-09-06T21:26:01.498Z,92.20
2022-09-06T21:28:28.836Z,93.00
2022-09-06T21:31:08.387Z,92.40
2022-09-06T21:33:35.955Z,93.10
2022-09-06T21:36:06.727Z,92.60
2022-09-06T21:38:34.223Z,92.50
2022-09-06T21:41:01.743Z,92.80
2022-09-06T21:43:28.397Z,92.10
2022-09-06T21:45:55.044Z,92.50
2022-09-06T21:48:21.700Z,92.70
2022-09-06T21:50:48.502Z,92.50
2022-09-06T21:53:15.438Z,92.80
2022-09-06T21:55:42.521Z,92.90
2022-09-06T21:58:09.747Z,93.20
2022-09-06T22:00:36.474Z,93.30
2022-09-06T22:03:03.241Z,93.50
2022-09-06T22:05:30.048Z,93.70
2022-09-06T22:07:56.756Z,93.00
2022-09-06T22:10:24.235Z,93.50
2022-09-06T22:12:50.976Z,93.80
2022-09-06T22:15:18.969Z,94.00
2022-09-06T22:17:45.585Z,94.20
2022-09-06T22:20:12.278Z,94.10
2022-09-06T22:22:38.915Z,93.90
2022-09-06T22:25:05.777Z,94.10
2022-09-06T22:27:32.349Z,93.80
2022-09-06T22:29:58.995Z,93.60
2022-09-06T22:32:25.703Z,93.60
2022-09-06T22:34:52.484Z,93.90
2022-09-06T22:37:19.066Z,93.60
2022-09-06T22:39:46.332Z,94.20
2022-09-06T22:42:12.997Z,94.10
2022-09-06T22:44:40.568Z,94.10
2022-09-06T22:47:07.370Z,94.50
2022-09-06T22:49:33.937Z,94.40
2022-09-06T22:52:00.481Z,94.80
2022-09-06T22:54:27.056Z,95.30
2022-09-06T22:56:53.606Z,95.40
2022-09-06T22:59:20.209Z,96.00
2022-09-06T23:01:47.690Z,96.20
2022-09-06T23:04:14.357Z,96.40
2022-09-06T23:06:41.234Z,96.30
2022-09-06T23:09:07.867Z,96.40
2022-09-06T23:11:34.502Z,96.60
2022-09-06T23:14:01.218Z,96.40
2022-09-06T23:16:28.266Z,96.70
2022-09-06T23:18:55.396Z,95.70
2022-09-06T23:21:23.417Z,95.50
2022-09-06T23:23:51.035Z,96.00
2022-09-06T23:26:21.824Z,95.90
2022-09-06T23:28:56.263Z,96.30
2022-09-06T23:31:24.029Z,96.20
2022-09-06T23:33:54.236Z,96.30
2022-09-06T23:36:20.941Z,96.30
2022-09-06T23:38:47.860Z,96.20
2022-09-06T23:41:14.766Z,96.40
2022-09-06T23:43:42.246Z,96.80
2022-09-06T23:46:09.721Z,96.90
2022-09-06T23:48:36.990Z,96.30
2022-09-06T23:51:04.099Z,96.60
2022-09-06T23:53:30.857Z,95.90
2022-09-06T23:55:57.511Z,96.10
2022-09-06T23:58:24.295Z,96.60
